createdAt,value
2023-02-18T00:02:19.280Z,41.03
2023-02-18T00:04:47.910Z,41.27
2023-02-18T00:07:16.656Z,39.80
2023-02-18T00:09:45.295Z,42.20
2023-02-18T00:12:13.852Z,32.83
2023-02-18T00:14:42.452Z,39.00
2023-02-18T00:17:13.748Z,32.53
2023-02-18T00:19:42.348Z,29.00
2023-02-18T00:22:10.951Z,35.23
2023-02-18T00:24:40.224Z,27.33
2023-02-18T00:27:09.711Z,33.10
2023-02-18T00:29:38.412Z,29.73
2023-02-18T00:32:07.118Z,42.33
2023-02-18T00:34:35.814Z,32.43
2023-02-18T00:37:05.075Z,28.67
2023-02-18T00:39:33.698Z,28.40
2023-02-18T00:42:02.335Z,28.80
2023-02-18T00:44:30.991Z,25.93
2023-02-18T00:46:59.681Z,33.30
2023-02-18T00:49:28.366Z,32.63
2023-02-18T00:51:57.036Z,34.93
2023-02-18T00:54:26.013Z,31.60
2023-02-18T00:56:57.583Z,29.43
2023-02-18T00:59:26.175Z,28.57
2023-02-18T01:01:54.802Z,30.60
2023-02-18T01:04:23.523Z,24.30
2023-02-18T01:06:52.541Z,32.30
2023-02-18T01:09:21.279Z,30.93
2023-02-18T01:11:49.985Z,29.03
2023-02-18T01:14:18.700Z,35.20
2023-02-18T01:16:47.223Z,29.23
2023-02-18T01:19:15.980Z,25.57
2023-02-18T01:21:44.667Z,33.20
2023-02-18T01:24:13.242Z,27.60
2023-02-18T01:26:41.810Z,26.33
2023-02-18T01:29:10.405Z,35.47
2023-02-18T01:31:39.217Z,27.67
2023-02-18T01:34:07.925Z,24.90
2023-02-18T01:36:36.584Z,32.10
2023-02-18T01:39:07.245Z,26.73
2023-02-18T01:41:35.984Z,26.13
2023-02-18T01:44:19.554Z,27.60
2023-02-18T01:46:49.285Z,30.67
2023-02-18T01:49:23.617Z,31.00
2023-02-18T01:51:55.226Z,29.20
2023-02-18T01:54:32.695Z,29.00
2023-02-18T01:57:16.479Z,26.20
2023-02-18T01:59:48.045Z,24.33
2023-02-18T02:02:19.732Z,31.53
2023-02-18T02:04:49.201Z,31.40
2023-02-18T02:07:20.686Z,30.20
2023-02-18T02:09:51.858Z,26.00
2023-02-18T02:12:44.781Z,36.23
2023-02-18T02:15:48.170Z,25.10
2023-02-18T02:18:46.920Z,26.37
2023-02-18T02:21:18.496Z,26.00
2023-02-18T02:24:11.464Z,26.00
2023-02-18T02:27:07.085Z,32.43
2023-02-18T02:29:50.719Z,26.60
2023-02-18T02:32:25.309Z,30.27
2023-02-18T02:35:08.954Z,22.83
2023-02-18T02:37:49.216Z,32.17
2023-02-18T02:40:27.808Z,30.20
2023-02-18T02:43:26.189Z,26.33
2023-02-18T02:45:57.953Z,26.80
2023-02-18T02:48:58.755Z,30.23
2023-02-18T02:51:33.226Z,26.43
2023-02-18T02:54:20.100Z,25.53
2023-02-18T02:56:49.433Z,29.33
2023-02-18T02:59:24.084Z,26.70
2023-02-18T03:02:07.679Z,29.13
2023-02-18T03:05:00.183Z,30.40
2023-02-18T03:07:37.649Z,31.37
2023-02-18T03:10:33.557Z,25.60
2023-02-18T03:13:21.530Z,31.30
2023-02-18T03:16:05.053Z,28.07
2023-02-18T03:18:42.832Z,29.37
2023-02-18T03:21:26.374Z,28.10
2023-02-18T03:24:06.544Z,33.83
2023-02-18T03:26:37.593Z,31.13
2023-02-18T03:29:08.531Z,46.73
2023-02-18T03:31:40.049Z,46.17
2023-02-18T03:34:14.488Z,50.47
2023-02-18T03:36:44.149Z,68.10
2023-02-18T03:39:18.097Z,63.23
2023-02-18T03:41:47.411Z,71.53
2023-02-18T03:44:16.264Z,66.67
2023-02-18T03:46:46.471Z,77.00
2023-02-18T03:49:16.321Z,63.77
2023-02-18T03:51:45.701Z,53.80
2023-02-18T03:54:14.786Z,52.17
2023-02-18T03:56:44.120Z,46.37
2023-02-18T03:59:14.376Z,50.87
2023-02-18T04:01:43.064Z,52.47
2023-02-18T04:04:11.737Z,47.67
2023-02-18T04:06:40.549Z,40.87
2023-02-18T04:09:09.502Z,39.93
2023-02-18T04:11:40.377Z,48.13
2023-02-18T04:14:09.805Z,49.50
2023-02-18T04:16:38.536Z,49.87
2023-02-18T04:19:07.321Z,43.23
2023-02-18T04:21:36.405Z,45.03
2023-02-18T04:24:05.057Z,41.83
2023-02-18T04:26:33.718Z,43.57
2023-02-18T04:29:02.591Z,48.33
2023-02-18T04:31:31.390Z,52.70
2023-02-18T04:34:00.185Z,50.67
2023-02-18T04:36:30.710Z,44.73
2023-02-18T04:39:00.006Z,50.90
2023-02-18T04:41:28.653Z,50.80
2023-02-18T04:43:59.010Z,38.60
2023-02-18T04:46:27.840Z,49.37
2023-02-18T04:48:56.579Z,43.23
2023-02-18T04:51:25.429Z,42.00
2023-02-18T04:53:54.265Z,44.33
2023-02-18T04:56:22.916Z,45.50
2023-02-18T04:58:51.594Z,48.37
2023-02-18T05:01:20.356Z,48.03
2023-02-18T05:03:48.993Z,53.97
2023-02-18T05:06:17.650Z,50.40
2023-02-18T05:08:46.495Z,52.63
2023-02-18T05:11:15.262Z,52.50
2023-02-18T05:13:44.080Z,46.27
2023-02-18T05:16:13.282Z,50.20
2023-02-18T05:18:43.665Z,46.37
2023-02-18T05:21:12.280Z,54.53
2023-02-18T05:23:40.998Z,48.80
2023-02-18T05:26:10.041Z,42.37
2023-02-18T05:28:38.850Z,41.27
2023-02-18T05:31:07.541Z,41.20
2023-02-18T05:33:36.648Z,40.27
2023-02-18T05:36:05.825Z,38.73
2023-02-18T05:38:34.443Z,38.70
2023-02-18T05:41:03.690Z,38.53
2023-02-18T05:43:34.034Z,44.33
2023-02-18T05:46:08.883Z,42.30
2023-02-18T05:48:42.453Z,35.87
2023-02-18T05:54:15.835Z,38.77
2023-02-18T05:56:44.497Z,37.73
2023-02-18T05:59:13.415Z,40.97
2023-02-18T06:01:44.685Z,39.80
2023-02-18T06:04:14.598Z,40.67
2023-02-18T06:06:46.405Z,48.87
2023-02-18T06:09:16.708Z,46.10
2023-02-18T06:11:50.447Z,44.77
2023-02-18T06:14:53.857Z,56.30
2023-02-18T06:17:24.226Z,37.07
2023-02-18T06:19:54.590Z,40.70
2023-02-18T06:22:26.508Z,51.13
2023-02-18T06:28:25.416Z,51.23
2023-02-18T06:30:57.068Z,44.90
2023-02-18T06:33:26.911Z,40.70
2023-02-18T06:36:04.004Z,36.50
2023-02-18T06:38:32.852Z,33.23
2023-02-18T06:41:01.979Z,38.63
2023-02-18T06:43:34.324Z,39.00
2023-02-18T06:46:03.275Z,38.27
2023-02-18T06:48:32.891Z,28.23
2023-02-18T06:51:11.314Z,37.47
2023-02-18T06:53:48.652Z,29.67
2023-02-18T06:59:49.836Z,38.87
2023-02-18T07:12:35.299Z,35.33
2023-02-18T07:18:44.775Z,30.53
2023-02-18T07:21:17.408Z,44.87
2023-02-18T07:26:49.111Z,58.50
2023-02-18T07:29:20.789Z,44.23
2023-02-18T07:35:21.756Z,71.80
2023-02-18T07:37:53.875Z,83.37
2023-02-18T07:44:06.358Z,72.30
2023-02-18T09:09:18.954Z,162.18
2023-02-18T09:12:00.895Z,32.73
2023-02-18T09:14:36.924Z,48.30
2023-02-18T09:17:10.009Z,46.33
2023-02-18T09:19:42.054Z,36.70
2023-02-18T09:22:12.128Z,38.23
2023-02-18T09:24:44.067Z,32.53
2023-02-18T09:27:12.916Z,42.00
2023-02-18T09:29:42.782Z,39.33
2023-02-18T09:32:20.008Z,33.53
2023-02-18T09:38:16.960Z,34.47
2023-02-18T09:40:56.076Z,42.17
2023-02-18T09:43:34.569Z,44.98
2023-02-18T09:46:14.136Z,29.67
2023-02-18T09:49:01.198Z,44.08
2023-02-18T09:51:22.317Z,36.45
2023-02-18T09:53:53.294Z,33.15
2023-02-18T09:56:34.552Z,32.13
2023-02-18T09:59:10.481Z,29.40
2023-02-18T10:01:50.501Z,36.23
2023-02-18T10:04:25.430Z,25.70
2023-02-18T10:07:02.613Z,32.65
2023-02-18T10:09:42.482Z,29.65
2023-02-18T10:12:33.673Z,28.35
2023-02-18T10:18:41.958Z,32.15
2023-02-18T10:21:21.272Z,26.35
2023-02-18T10:24:20.089Z,32.00
2023-02-18T10:26:51.463Z,29.02
2023-02-18T10:29:40.179Z,25.70
2023-02-18T10:35:57.011Z,25.68
2023-02-18T10:42:09.093Z,13.98
2023-02-18T10:45:03.095Z,16.60
2023-02-18T10:47:42.944Z,18.57
2023-02-18T10:53:16.492Z,28.47
2023-02-18T10:56:08.938Z,30.70
2023-02-18T10:58:44.145Z,34.43
2023-02-18T11:01:22.612Z,27.67
2023-02-18T11:03:54.983Z,25.80
2023-02-18T11:20:15.689Z,14.13
2023-02-18T11:39:28.505Z,11.63
2023-02-18T11:44:22.880Z,17.52
2023-02-18T11:52:30.150Z,8.28
2023-02-18T11:55:08.668Z,12.98
2023-02-18T11:57:40.503Z,9.50
2023-02-18T12:06:58.128Z,11.12
2023-02-18T12:17:19.081Z,8.33
2023-02-18T12:20:06.685Z,10.95
2023-02-18T12:22:57.610Z,13.55
2023-02-18T12:25:32.243Z,11.68
2023-02-18T12:28:18.824Z,9.65
2023-02-18T12:31:00.789Z,8.83
2023-02-18T12:33:56.014Z,11.20
2023-02-18T12:40:29.704Z,11.63
2023-02-18T12:46:30.515Z,12.15
2023-02-18T12:49:14.102Z,13.58
2023-02-18T12:52:07.045Z,10.43
2023-02-18T12:55:08.805Z,12.47
2023-02-18T12:57:46.567Z,11.25
2023-02-18T13:00:38.064Z,14.60
2023-02-18T13:03:42.960Z,8.00
2023-02-18T13:06:44.360Z,9.25
2023-02-18T13:09:31.694Z,14.98
2023-02-18T13:12:05.281Z,11.70
2023-02-18T13:15:06.177Z,8.38
2023-02-18T13:18:02.152Z,12.58
2023-02-18T13:27:54.357Z,11.25
2023-02-18T13:34:20.600Z,9.75
2023-02-18T13:37:01.108Z,9.83
2023-02-18T13:39:37.393Z,11.38
2023-02-18T13:42:21.402Z,9.88
2023-02-18T13:45:00.919Z,11.22
2023-02-18T13:47:44.989Z,11.18
2023-02-18T13:50:23.685Z,9.98
2023-02-18T13:52:54.896Z,13.00
2023-02-18T13:55:29.485Z,9.65
2023-02-18T14:08:40.833Z,14.23
2023-02-18T14:11:26.830Z,10.45
2023-02-18T14:14:28.638Z,13.00
2023-02-18T14:17:43.431Z,9.85
2023-02-18T14:20:15.334Z,10.20
2023-02-18T14:26:44.512Z,12.80
2023-02-18T14:33:04.108Z,12.70
2023-02-18T14:42:22.144Z,9.93
2023-02-18T14:45:16.698Z,9.60
2023-02-18T14:51:35.143Z,9.38
2023-02-18T14:54:28.275Z,11.95
2023-02-18T14:57:29.201Z,12.60
2023-02-18T15:00:18.484Z,16.35
2023-02-18T15:23:26.685Z,11.60
2023-02-18T15:26:06.816Z,14.15
2023-02-18T15:28:45.362Z,11.18
2023-02-18T15:34:28.420Z,10.53
2023-02-18T15:37:07.498Z,12.90
2023-02-18T15:52:54.250Z,15.53
2023-02-18T15:55:26.293Z,19.02
2023-02-18T15:58:09.570Z,14.30
2023-02-18T16:00:47.289Z,20.05
2023-02-18T16:03:19.069Z,14.83
2023-02-18T16:05:47.990Z,19.07
2023-02-18T16:08:20.229Z,10.78
2023-02-18T16:10:52.010Z,13.53
2023-02-18T16:13:21.270Z,10.70
2023-02-18T16:15:53.918Z,11.60
2023-02-18T16:18:30.321Z,19.90
2023-02-18T16:21:06.266Z,16.40
2023-02-18T16:23:37.953Z,13.90
2023-02-18T16:26:22.158Z,19.23
2023-02-18T16:28:53.454Z,16.32
2023-02-18T16:31:23.211Z,16.42
2023-02-18T16:33:52.011Z,15.80
2023-02-18T16:36:22.784Z,16.37
2023-02-18T16:38:51.608Z,16.77
2023-02-18T16:41:22.816Z,17.60
2023-02-18T16:43:51.836Z,11.85
2023-02-18T16:46:30.507Z,12.95
2023-02-18T16:49:01.569Z,14.90
2023-02-18T16:51:35.218Z,16.57
2023-02-18T16:54:09.992Z,14.93
2023-02-18T17:09:36.394Z,13.53
2023-02-18T17:12:48.714Z,15.80
2023-02-18T17:25:23.345Z,14.13
2023-02-18T17:28:16.847Z,18.05
2023-02-18T17:30:51.107Z,15.13
2023-02-18T17:33:24.236Z,13.67
2023-02-18T17:36:10.049Z,18.20
2023-02-18T17:39:03.036Z,25.65
2023-02-18T17:51:38.245Z,14.70
2023-02-18T18:00:37.424Z,16.63
2023-02-18T18:24:25.472Z,26.48
2023-02-18T18:30:57.354Z,25.60
2023-02-18T18:43:37.684Z,33.05
2023-02-18T18:46:08.242Z,20.33
2023-02-18T18:48:48.160Z,25.37
2023-02-18T18:51:27.839Z,21.73
2023-02-18T18:54:20.648Z,22.70
2023-02-18T19:16:07.713Z,16.83
2023-02-18T19:18:56.939Z,19.98
2023-02-18T19:21:48.270Z,19.10
2023-02-18T19:37:53.104Z,19.53
2023-02-18T19:44:21.085Z,21.23
2023-02-18T19:50:44.126Z,17.40
2023-02-18T19:55:32.732Z,14.80
2023-02-18T19:56:20.793Z,16.70
2023-02-18T20:05:51.208Z,22.83
2023-02-18T20:19:10.378Z,35.37
2023-02-18T20:24:27.532Z,28.50
2023-02-18T20:33:51.551Z,29.07
2023-02-18T20:36:32.691Z,30.87
2023-02-18T20:39:15.779Z,32.80
2023-02-18T20:45:08.381Z,33.63
2023-02-18T20:47:44.062Z,32.53
2023-02-18T20:50:18.872Z,30.20
2023-02-18T21:04:02.086Z,32.07
2023-02-18T21:06:34.964Z,35.53
2023-02-18T21:13:08.081Z,28.17
2023-02-18T21:15:42.759Z,28.20
2023-02-18T21:22:02.220Z,29.80
2023-02-18T21:24:32.662Z,28.37
2023-02-18T21:27:02.833Z,28.20
2023-02-18T21:29:33.463Z,29.83
2023-02-18T21:32:08.307Z,28.93
2023-02-18T21:34:37.186Z,37.13
2023-02-18T21:37:13.494Z,51.27
2023-02-18T21:39:43.181Z,37.77
2023-02-18T21:42:12.027Z,36.67
2023-02-18T21:44:42.787Z,39.90
2023-02-18T21:47:17.895Z,33.03
2023-02-18T21:49:48.440Z,32.77
2023-02-18T21:52:19.502Z,32.93
2023-02-18T21:54:49.482Z,25.97
2023-02-18T21:57:24.333Z,29.83
2023-02-18T22:06:19.023Z,27.37
2023-02-18T22:08:50.839Z,29.57
2023-02-18T22:20:51.600Z,27.37
2023-02-18T22:23:20.529Z,26.10
2023-02-18T22:25:49.340Z,31.93
2023-02-18T22:31:47.974Z,31.30
2023-02-18T22:34:19.579Z,27.97
2023-02-18T22:40:05.441Z,39.30
2023-02-18T22:45:28.297Z,24.73
2023-02-18T22:51:31.951Z,32.53
2023-02-18T22:54:02.223Z,28.47
2023-02-18T22:56:39.641Z,22.70
2023-02-18T22:59:09.774Z,29.27
2023-02-18T23:05:09.805Z,24.87
2023-02-18T23:07:44.724Z,25.70
2023-02-18T23:13:51.941Z,28.73
2023-02-18T23:26:02.888Z,26.17
2023-02-18T23:28:33.530Z,24.83
2023-02-18T23:34:54.189Z,25.93
2023-02-18T23:37:24.748Z,26.40
2023-02-18T23:39:53.592Z,26.57
2023-02-18T23:42:28.066Z,35.13
2023-02-18T23:44:58.316Z,25.43
2023-02-18T23:47:27.343Z,32.37
2023-02-18T23:49:56.152Z,25.70
2023-02-18T23:52:27.591Z,30.70
2023-02-18T23:54:58.381Z,31.57
2023-02-18T23:57:28.983Z,32.43
2023-02-18T23:59:57.778Z,35.13
